Piney Point, Maryland
Current Conditions -  °F | °C
As of 12:53 PM on Tuesday 21 Oct 2014 (Local Time) from KNUI Reporting Station
Clear Clear  
Wind Chill: 70°   Ceiling: Unl
Heat Index: 70°   Visibility: 10mi
Dew Point: 49°   Wind: 5mph
Humidity: 47%   Direction: 250°WSW
Pressure: 29.84"   Gusts: NA
Location:  38.14°N, 76.51°W
Report Text: KNUI 211653Z AUTO 25004KT 10SM CLR 21/09 A2984 RMK AO2 SLP104 T02110094
Loading
Personal Weather Stations






























Interactive Weather Map
Tropical Storm Tracking
New forecast layout! Learn more

10-Day Weather Forecast

Advertisements
Track Severe Weather on mobile